createdAt,value
2022-08-29T00:00:48.458Z,1.4
2022-08-29T00:01:58.143Z,1.2
2022-08-29T00:03:08.594Z,1.7
2022-08-29T00:04:16.508Z,1.3
2022-08-29T00:05:26.107Z,1.3
2022-08-29T00:06:34.761Z,1.1
2022-08-29T00:07:43.620Z,1.2
2022-08-29T00:08:53.316Z,1
2022-08-29T00:10:01.974Z,1.4
2022-08-29T00:11:10.624Z,1.1
2022-08-29T00:12:20.285Z,1
2022-08-29T00:13:27.938Z,1.1
2022-08-29T00:14:37.636Z,1.4
2022-08-29T00:15:47.272Z,1.6
2022-08-29T00:16:54.973Z,1.5
2022-08-29T00:18:04.587Z,1.3
2022-08-29T00:19:13.252Z,1.1
2022-08-29T00:20:25.330Z,1.3
2022-08-29T00:21:31.627Z,1.8
2022-08-29T00:22:39.273Z,1.5
2022-08-29T00:23:48.949Z,1.3
2022-08-29T00:24:58.603Z,1.2
2022-08-29T00:26:06.341Z,1.4
2022-08-29T00:27:16.018Z,1.1
2022-08-29T00:28:25.672Z,1.3
2022-08-29T00:29:34.394Z,1
2022-08-29T00:30:44.078Z,1
2022-08-29T00:31:51.778Z,1
2022-08-29T00:33:01.401Z,1
2022-08-29T00:34:09.047Z,1.6
2022-08-29T00:35:16.687Z,1.3
2022-08-29T00:36:26.348Z,1.2
2022-08-29T00:37:36.112Z,1.4
2022-08-29T00:38:45.782Z,1.3
2022-08-29T00:39:55.475Z,1.7
2022-08-29T00:41:05.083Z,1.5
2022-08-29T00:42:14.747Z,1
2022-08-29T00:43:24.525Z,1
2022-08-29T00:44:33.204Z,1.3
2022-08-29T00:45:42.903Z,1.5
2022-08-29T00:46:50.505Z,1.2
2022-08-29T00:47:59.199Z,1.1
2022-08-29T00:49:08.871Z,1.5
2022-08-29T00:50:17.517Z,1.2
2022-08-29T00:51:27.194Z,0.9
2022-08-29T00:52:36.848Z,0.9
2022-08-29T00:53:46.534Z,1.5
2022-08-29T00:54:56.219Z,1
2022-08-29T00:56:03.869Z,1.3
2022-08-29T00:57:13.522Z,1.2
2022-08-29T00:58:22.186Z,1.2
2022-08-29T00:59:30.849Z,1.2
2022-08-29T01:00:40.589Z,1.3
2022-08-29T01:01:48.252Z,1.5
2022-08-29T01:02:57.897Z,1.3
2022-08-29T01:04:09.785Z,1.3
2022-08-29T01:05:18.177Z,0.9
2022-08-29T01:06:27.852Z,1
2022-08-29T01:07:37.969Z,1.4
2022-08-29T01:08:48.152Z,0.9
2022-08-29T01:09:57.795Z,1.3
2022-08-29T01:11:06.457Z,1
2022-08-29T01:12:16.147Z,1.2
2022-08-29T01:13:24.818Z,1.2
2022-08-29T01:14:36.755Z,1.1
2022-08-29T01:15:44.124Z,0.9
2022-08-29T01:16:52.843Z,1.1
2022-08-29T01:18:01.463Z,1
2022-08-29T01:19:11.118Z,1.1
2022-08-29T01:20:19.778Z,1.4
2022-08-29T01:21:29.411Z,1.3
2022-08-29T01:22:38.055Z,1.2
2022-08-29T01:23:45.718Z,1
2022-08-29T01:24:55.384Z,1.1
2022-08-29T01:26:04.058Z,1.3
2022-08-29T01:27:12.743Z,1.1
2022-08-29T01:28:22.410Z,1.1
2022-08-29T01:29:30.105Z,0.9
2022-08-29T01:30:39.786Z,0.7
2022-08-29T01:31:56.521Z,1
2022-08-29T01:32:58.038Z,0.9
2022-08-29T01:34:07.698Z,1.2
2022-08-29T01:35:15.383Z,1.2
2022-08-29T01:36:24.043Z,0.9
2022-08-29T01:37:33.686Z,1.2
2022-08-29T01:38:41.333Z,1
2022-08-29T01:39:50.987Z,1
2022-08-29T01:40:59.675Z,0.7
2022-08-29T01:42:06.318Z,1
2022-08-29T01:43:16.040Z,0.9
2022-08-29T01:44:23.663Z,1.1
2022-08-29T01:45:32.377Z,0.8
2022-08-29T01:46:42.008Z,1
2022-08-29T01:47:49.628Z,1.3
2022-08-29T01:48:59.287Z,0.9
2022-08-29T01:50:08.943Z,1.1
2022-08-29T01:51:18.610Z,1.1
2022-08-29T01:52:28.290Z,1
2022-08-29T01:53:37.950Z,1
2022-08-29T01:54:46.608Z,1.3
2022-08-29T01:55:56.258Z,1.4
2022-08-29T01:57:06.752Z,1
2022-08-29T01:58:15.946Z,1.1
2022-08-29T01:59:24.409Z,1.4
2022-08-29T02:00:32.123Z,1.2
2022-08-29T02:01:39.846Z,1.2
2022-08-29T02:02:47.415Z,1.5
2022-08-29T02:03:56.107Z,1.2
2022-08-29T02:05:05.776Z,1.2
2022-08-29T02:06:13.397Z,1.2
2022-08-29T02:07:23.058Z,1.2
2022-08-29T02:08:31.692Z,1.7
2022-08-29T02:09:39.345Z,1.3
2022-08-29T02:10:50.009Z,1
2022-08-29T02:11:57.652Z,1.1
2022-08-29T02:13:06.310Z,1
2022-08-29T02:14:16.661Z,1.1
2022-08-29T02:15:24.621Z,1.6
2022-08-29T02:16:34.329Z,0.9
2022-08-29T02:17:42.922Z,1
2022-08-29T02:18:51.574Z,0.8
2022-08-29T02:20:01.245Z,0.8
2022-08-29T02:21:08.906Z,1.2
2022-08-29T02:22:17.554Z,0.8
2022-08-29T02:23:30.743Z,0.9
2022-08-29T02:24:35.827Z,1
2022-08-29T02:25:45.484Z,1
2022-08-29T02:26:55.152Z,1
2022-08-29T02:28:02.823Z,1
2022-08-29T02:29:12.475Z,0.7
2022-08-29T02:30:20.126Z,0.8
2022-08-29T02:31:29.814Z,1
2022-08-29T02:32:39.445Z,0.5
2022-08-29T02:33:49.136Z,0.8
2022-08-29T02:34:58.791Z,0.7
2022-08-29T02:36:08.422Z,1.1
2022-08-29T02:37:16.074Z,0.6
2022-08-29T02:38:25.750Z,0.7
2022-08-29T02:39:34.426Z,0.8
2022-08-29T02:40:43.143Z,1
2022-08-29T02:41:52.775Z,0.8
2022-08-29T02:43:01.410Z,0.6
2022-08-29T02:44:11.121Z,0.6
2022-08-29T02:45:20.777Z,0.8
2022-08-29T02:46:29.514Z,1
2022-08-29T02:47:39.119Z,0.5
2022-08-29T02:48:49.328Z,0.9
2022-08-29T02:49:58.448Z,0.7
2022-08-29T02:51:07.133Z,0.4
2022-08-29T02:52:14.805Z,0.6
2022-08-29T02:53:24.462Z,0.8
2022-08-29T02:54:34.165Z,0.8
2022-08-29T02:55:41.843Z,0.8
2022-08-29T02:56:51.494Z,0.9
2022-08-29T02:57:58.130Z,0.9
2022-08-29T02:59:07.792Z,1
2022-08-29T03:00:16.439Z,0.8
2022-08-29T03:01:25.148Z,0.8
2022-08-29T03:02:34.819Z,0.8
2022-08-29T03:03:42.476Z,0.9
2022-08-29T03:04:53.155Z,0.8
2022-08-29T03:06:01.814Z,1
2022-08-29T03:07:10.477Z,0.6
2022-08-29T03:08:20.167Z,0.8
2022-08-29T03:09:29.819Z,0.8
2022-08-29T03:10:39.490Z,0.8
2022-08-29T03:11:49.141Z,0.7
2022-08-29T03:12:56.824Z,0.7
2022-08-29T03:14:06.487Z,0.6
2022-08-29T03:15:15.161Z,0.7
2022-08-29T03:16:23.845Z,0.7
2022-08-29T03:17:33.479Z,0.7
2022-08-29T03:18:41.136Z,0.8
2022-08-29T03:19:50.793Z,0.8
2022-08-29T03:21:00.441Z,0.6
2022-08-29T03:22:09.104Z,0.9
2022-08-29T03:23:18.775Z,0.9
2022-08-29T03:24:28.421Z,0.7
2022-08-29T03:25:37.141Z,0.7
2022-08-29T03:26:46.823Z,0.5
2022-08-29T03:27:55.504Z,0.8
2022-08-29T03:29:04.216Z,0.7
2022-08-29T03:30:13.925Z,1
2022-08-29T03:31:21.659Z,0.6
2022-08-29T03:32:31.223Z,0.8
2022-08-29T03:33:39.901Z,0.7
2022-08-29T03:34:47.560Z,0.7
2022-08-29T03:35:57.269Z,0.8
2022-08-29T03:37:05.921Z,1
2022-08-29T03:38:14.780Z,0.7
2022-08-29T03:39:23.255Z,0.8
2022-08-29T03:40:30.963Z,0.7
2022-08-29T03:41:40.609Z,1
2022-08-29T03:42:49.259Z,0.7
2022-08-29T03:43:56.903Z,0.8
2022-08-29T03:45:06.570Z,0.9
2022-08-29T03:46:15.264Z,0.8
2022-08-29T03:47:23.948Z,0.8
2022-08-29T03:48:33.616Z,0.9
2022-08-29T03:49:42.276Z,0.7
2022-08-29T03:50:55.834Z,0.8
2022-08-29T03:52:01.578Z,0.9
2022-08-29T03:53:10.259Z,1.2
2022-08-29T03:54:19.921Z,1
2022-08-29T03:55:28.575Z,0.9
2022-08-29T03:56:37.259Z,1
2022-08-29T03:57:46.924Z,0.9
2022-08-29T03:58:56.595Z,1.1
2022-08-29T04:00:06.261Z,0.9
2022-08-29T04:01:14.923Z,0.8
2022-08-29T04:02:22.629Z,0.7
2022-08-29T04:03:32.223Z,0.7
2022-08-29T04:04:39.926Z,0.7
2022-08-29T04:05:50.966Z,0.8
2022-08-29T04:06:59.350Z,0.7
2022-08-29T04:08:08.142Z,0.7
2022-08-29T04:09:17.794Z,0.9
2022-08-29T04:10:26.506Z,0.8
2022-08-29T04:11:34.173Z,0.8
2022-08-29T04:12:42.825Z,0.7
2022-08-29T04:13:50.478Z,0.9
2022-08-29T04:14:59.148Z,0.7
2022-08-29T04:16:08.878Z,0.8
2022-08-29T04:17:17.528Z,0.7
2022-08-29T04:18:27.190Z,0.7
2022-08-29T04:19:35.860Z,0.6
2022-08-29T04:20:43.510Z,0.7
2022-08-29T04:21:53.228Z,0.6
2022-08-29T04:23:01.875Z,0.5
2022-08-29T04:24:10.529Z,0.7
2022-08-29T04:25:20.202Z,0.8
2022-08-29T04:26:37.725Z,0.7
2022-08-29T04:27:40.542Z,0.5
2022-08-29T04:28:49.207Z,0.6
2022-08-29T04:29:58.858Z,0.5
2022-08-29T04:31:08.566Z,0.6
2022-08-29T04:32:17.199Z,0.6
2022-08-29T04:33:25.854Z,0.6
2022-08-29T04:34:35.588Z,0.7
2022-08-29T04:35:43.244Z,0.6
2022-08-29T04:36:52.945Z,0.6
2022-08-29T04:38:01.645Z,0.8
2022-08-29T04:39:09.317Z,0.6
2022-08-29T04:40:19.021Z,0.6
2022-08-29T04:41:26.631Z,0.4
2022-08-29T04:42:35.283Z,0.6
2022-08-29T04:43:44.955Z,0.6
2022-08-29T04:44:54.749Z,0.5
2022-08-29T04:46:04.435Z,0.6
2022-08-29T04:47:13.088Z,0.7
2022-08-29T04:48:21.777Z,0.5
2022-08-29T04:49:31.422Z,0.6
2022-08-29T04:50:40.129Z,0.3
2022-08-29T04:51:48.792Z,0.6
2022-08-29T04:52:58.445Z,0.6
2022-08-29T04:54:06.111Z,0.6
2022-08-29T04:55:19.527Z,0.6
2022-08-29T04:56:25.424Z,0.8
2022-08-29T04:57:35.092Z,0.4
2022-08-29T04:58:44.742Z,0.7
2022-08-29T04:59:54.393Z,0.5
2022-08-29T05:01:04.053Z,0.5
2022-08-29T05:02:11.721Z,0.5
2022-08-29T05:03:20.404Z,0.6
2022-08-29T05:04:30.062Z,0.6
2022-08-29T05:05:37.720Z,0.6
2022-08-29T05:06:47.373Z,0.6
2022-08-29T05:07:56.060Z,0.7
2022-08-29T05:09:04.703Z,0.9
2022-08-29T05:10:14.371Z,0.8
2022-08-29T05:11:24.010Z,0.9
2022-08-29T05:12:33.672Z,0.8
2022-08-29T05:13:43.331Z,0.7
2022-08-29T05:14:52.011Z,0.9
2022-08-29T05:16:01.706Z,0.8
2022-08-29T05:17:10.311Z,0.8
2022-08-29T05:18:18.971Z,0.9
2022-08-29T05:19:28.655Z,0.9
2022-08-29T05:20:38.307Z,0.8
2022-08-29T05:21:46.990Z,1
2022-08-29T05:22:56.645Z,1.1
2022-08-29T05:24:05.323Z,1.1
2022-08-29T05:25:18.156Z,0.8
2022-08-29T05:26:24.688Z,0.9
2022-08-29T05:27:32.348Z,0.6
2022-08-29T05:28:42.042Z,0.8
2022-08-29T05:29:50.721Z,0.9
2022-08-29T05:30:59.466Z,1
2022-08-29T05:32:09.066Z,0.9
2022-08-29T05:33:16.748Z,0.9
2022-08-29T05:34:32.649Z,1.2
2022-08-29T05:35:35.101Z,1
2022-08-29T05:36:42.791Z,0.9
2022-08-29T05:37:52.489Z,0.8
2022-08-29T05:39:01.152Z,0.7
2022-08-29T05:40:09.876Z,0.6
2022-08-29T05:41:19.520Z,0.7
2022-08-29T05:42:28.202Z,0.8
2022-08-29T05:43:37.879Z,0.8
2022-08-29T05:44:47.534Z,0.9
2022-08-29T05:45:57.213Z,0.8
2022-08-29T05:47:06.893Z,0.7
2022-08-29T05:48:14.762Z,0.8
2022-08-29T05:49:23.284Z,0.7
2022-08-29T05:50:32.933Z,0.5
2022-08-29T05:51:42.587Z,0.7
2022-08-29T05:52:52.280Z,0.7
2022-08-29T05:54:02.032Z,1.1
2022-08-29T05:55:10.714Z,0.6
2022-08-29T05:56:20.397Z,0.8
2022-08-29T05:57:28.052Z,0.7
2022-08-29T05:58:36.698Z,0.6
2022-08-29T05:59:46.387Z,0.6
2022-08-29T06:00:54.040Z,0.7
2022-08-29T06:02:03.707Z,0.7
2022-08-29T06:03:12.430Z,0.6
2022-08-29T06:04:21.028Z,0.7
2022-08-29T06:05:30.779Z,0.7
2022-08-29T06:06:39.483Z,0.7
2022-08-29T06:07:48.170Z,0.5
2022-08-29T06:08:57.821Z,0.6
2022-08-29T06:10:06.478Z,0.5
2022-08-29T06:11:16.181Z,0.7
2022-08-29T06:12:24.834Z,0.6
2022-08-29T06:13:32.481Z,0.7
2022-08-29T06:14:42.169Z,0.7
2022-08-29T06:15:50.890Z,0.6
2022-08-29T06:16:59.574Z,1.2
2022-08-29T06:18:09.237Z,3.1
2022-08-29T06:19:17.886Z,2.5
2022-08-29T06:20:27.572Z,1
2022-08-29T06:21:35.232Z,0.5
2022-08-29T06:22:44.922Z,1
2022-08-29T06:23:54.572Z,1.3
2022-08-29T06:25:11.932Z,0.6
2022-08-29T06:26:13.864Z,0.5
2022-08-29T06:27:23.519Z,0.8
2022-08-29T06:28:32.216Z,0.9
2022-08-29T06:29:43.322Z,0.7
2022-08-29T06:30:50.543Z,0.9
2022-08-29T06:31:59.145Z,0.8
2022-08-29T06:33:08.817Z,0.9
2022-08-29T06:34:16.497Z,0.8
2022-08-29T06:35:25.202Z,0.9
2022-08-29T06:36:37.126Z,0.8
2022-08-29T06:37:44.514Z,0.6
2022-08-29T06:38:54.204Z,0.8
2022-08-29T06:40:01.925Z,0.7
2022-08-29T06:41:10.557Z,0.9
2022-08-29T06:42:20.223Z,0.5
2022-08-29T06:43:27.898Z,0.9
2022-08-29T06:44:40.237Z,0.7
2022-08-29T06:45:48.283Z,0.5
2022-08-29T06:46:56.934Z,0.6
2022-08-29T06:48:06.607Z,0.9
2022-08-29T06:49:15.274Z,0.8
2022-08-29T06:50:23.924Z,0.5
2022-08-29T06:51:33.608Z,0.5
2022-08-29T06:52:42.270Z,0.7
2022-08-29T06:53:50.926Z,0.6
2022-08-29T06:54:58.602Z,0.8
2022-08-29T06:56:11.426Z,0.8
2022-08-29T06:57:19.078Z,0.7
2022-08-29T06:58:26.741Z,0.5
2022-08-29T06:59:36.413Z,0.5
2022-08-29T07:00:48.966Z,0.6
2022-08-29T07:01:53.770Z,0.6
2022-08-29T07:03:04.459Z,0.6
2022-08-29T07:04:14.558Z,0.5
2022-08-29T07:05:22.689Z,0.9
2022-08-29T07:06:32.352Z,0.7
2022-08-29T07:07:40.996Z,1
2022-08-29T07:08:55.005Z,0.9
2022-08-29T07:09:59.416Z,0.6
2022-08-29T07:11:08.115Z,0.8
2022-08-29T07:12:17.766Z,0.5
2022-08-29T07:13:25.414Z,0.6
2022-08-29T07:14:35.090Z,0.6
2022-08-29T07:15:44.806Z,0.9
2022-08-29T07:16:53.409Z,0.3
2022-08-29T07:18:03.054Z,0.7
2022-08-29T07:19:10.707Z,0.6
2022-08-29T07:20:18.367Z,0.4
2022-08-29T07:21:28.033Z,0.4
2022-08-29T07:22:37.714Z,0.4
2022-08-29T07:23:47.362Z,0.4
2022-08-29T07:24:57.047Z,0.3
2022-08-29T07:26:06.759Z,0.4
2022-08-29T07:27:16.421Z,0.3
2022-08-29T07:28:25.093Z,0.4
2022-08-29T07:29:33.796Z,0.1
2022-08-29T07:30:43.481Z,0.5
2022-08-29T07:31:52.130Z,0.3
2022-08-29T07:33:00.802Z,0.3
2022-08-29T07:34:09.447Z,0.2
2022-08-29T07:35:18.415Z,0.5
2022-08-29T07:36:28.784Z,0.3
2022-08-29T07:37:36.440Z,0.2
2022-08-29T07:38:44.104Z,0.2
2022-08-29T07:39:53.786Z,0.4
2022-08-29T07:41:03.413Z,0.3
2022-08-29T07:42:13.078Z,0.2
2022-08-29T07:43:26.174Z,0.3
2022-08-29T07:44:34.558Z,0.3
2022-08-29T07:45:44.064Z,0.2
2022-08-29T07:46:52.656Z,0.4
2022-08-29T07:48:01.300Z,0.2
2022-08-29T07:49:10.992Z,0.2
2022-08-29T07:50:19.655Z,0.2
2022-08-29T07:51:28.311Z,0.1
2022-08-29T07:52:37.977Z,0.2
2022-08-29T07:53:46.641Z,0.1
2022-08-29T07:54:56.415Z,0.2
2022-08-29T07:56:06.139Z,0.3
2022-08-29T07:57:13.835Z,0.3
2022-08-29T07:58:23.477Z,0.3
2022-08-29T07:59:32.131Z,0.2
2022-08-29T08:00:41.967Z,0.3
2022-08-29T08:01:51.730Z,0.3
2022-08-29T08:02:59.377Z,0.2
2022-08-29T08:04:08.975Z,0.3
2022-08-29T08:05:18.641Z,0.3
2022-08-29T08:06:28.342Z,0.3
2022-08-29T08:07:39.561Z,0.1
2022-08-29T08:08:47.655Z,0.3
2022-08-29T08:09:56.344Z,0.3
2022-08-29T08:11:06.010Z,0.2
2022-08-29T08:12:13.675Z,0.3
2022-08-29T08:13:23.325Z,0.3
2022-08-29T08:14:33.101Z,0.4
2022-08-29T08:15:43.605Z,0.4
2022-08-29T08:16:53.285Z,0.5
2022-08-29T08:18:00.961Z,0.3
2022-08-29T08:19:09.646Z,0.6
2022-08-29T08:20:19.315Z,0.4
2022-08-29T08:21:26.997Z,0.3
2022-08-29T08:22:36.687Z,0.4
2022-08-29T08:23:45.409Z,0.3
2022-08-29T08:24:53.061Z,0.5
2022-08-29T08:26:02.728Z,0.2
2022-08-29T08:27:10.387Z,0.3
2022-08-29T08:28:18.050Z,0.4
2022-08-29T08:29:27.727Z,0.4
2022-08-29T08:30:37.491Z,0.4
2022-08-29T08:31:47.132Z,0.1
2022-08-29T08:32:56.795Z,0.3
2022-08-29T08:34:05.756Z,0.5
2022-08-29T08:35:15.177Z,0.3
2022-08-29T08:36:22.942Z,0.3
2022-08-29T08:37:31.508Z,0.2
2022-08-29T08:38:41.191Z,0.4
2022-08-29T08:39:50.854Z,0.5
2022-08-29T08:41:00.540Z,0.5
2022-08-29T08:42:10.217Z,0.5
2022-08-29T08:43:20.824Z,0.6
2022-08-29T08:44:30.551Z,0.4
2022-08-29T08:45:39.310Z,0.8
2022-08-29T08:46:49.022Z,0.7
2022-08-29T08:47:58.684Z,0.7
2022-08-29T08:49:06.346Z,1
2022-08-29T08:50:16.031Z,0.6
2022-08-29T08:51:25.711Z,0.9
2022-08-29T08:52:34.413Z,0.3
2022-08-29T08:53:44.083Z,0.5
2022-08-29T08:54:52.777Z,0.7
2022-08-29T08:56:01.413Z,0.4
2022-08-29T08:57:11.102Z,0.5
2022-08-29T08:58:19.807Z,0.1
2022-08-29T08:59:30.488Z,0.8
2022-08-29T09:00:40.137Z,1
2022-08-29T09:01:47.818Z,0.6
2022-08-29T09:02:58.516Z,0.5
2022-08-29T09:04:07.300Z,1.1
2022-08-29T09:05:18.037Z,0.5
2022-08-29T09:06:27.676Z,0.5
2022-08-29T09:07:35.342Z,0.6
2022-08-29T09:08:45.027Z,0.3
2022-08-29T09:09:54.712Z,0.5
2022-08-29T09:11:04.350Z,0.7
2022-08-29T09:12:14.009Z,0.5
2022-08-29T09:13:23.670Z,0.3
2022-08-29T09:14:32.326Z,0.4
2022-08-29T09:15:42.024Z,0.7
2022-08-29T09:16:49.758Z,1.1
2022-08-29T09:17:58.383Z,1.3
2022-08-29T09:19:08.071Z,0.9
2022-08-29T09:20:15.710Z,0.6
2022-08-29T09:21:41.806Z,0.7
2022-08-29T09:22:36.008Z,0.3
2022-08-29T09:23:44.663Z,0.4
2022-08-29T09:24:54.318Z,0.7
2022-08-29T09:26:02.970Z,0.4
2022-08-29T09:27:12.660Z,0.5
2022-08-29T09:28:21.316Z,0.4
2022-08-29T09:29:30.056Z,0.5
2022-08-29T09:30:39.717Z,0.4
2022-08-29T09:31:47.439Z,0.4
2022-08-29T09:32:57.039Z,0.5
2022-08-29T09:34:05.685Z,0.4
2022-08-29T09:35:13.320Z,0.3
2022-08-29T09:36:22.985Z,0.4
2022-08-29T09:37:30.636Z,0.3
2022-08-29T09:38:39.376Z,0.3
2022-08-29T09:39:51.874Z,0.3
2022-08-29T09:40:57.676Z,0.2
2022-08-29T09:42:07.350Z,0.6
2022-08-29T09:43:17.058Z,0.4
2022-08-29T09:44:25.666Z,0.4
2022-08-29T09:45:35.345Z,0.5
2022-08-29T09:46:43.978Z,0.4
2022-08-29T09:47:53.631Z,0.4
2022-08-29T09:49:03.277Z,0.5
2022-08-29T09:50:12.051Z,0.3
2022-08-29T09:51:20.707Z,0.3
2022-08-29T09:52:29.357Z,0.6
2022-08-29T09:53:37.008Z,0.3
2022-08-29T09:54:46.676Z,0.5
2022-08-29T09:55:55.347Z,0.5
2022-08-29T09:57:04.030Z,0.3
2022-08-29T09:58:13.700Z,0.3
2022-08-29T09:59:21.357Z,0.4
2022-08-29T10:00:31.043Z,0.3
2022-08-29T10:01:40.880Z,0.3
2022-08-29T10:02:50.556Z,0.3
2022-08-29T10:04:01.125Z,0.5
2022-08-29T10:05:11.088Z,0.3
2022-08-29T10:06:18.400Z,0.5
2022-08-29T10:07:28.198Z,0.2
2022-08-29T10:08:35.852Z,0.3
2022-08-29T10:09:45.511Z,0.4
2022-08-29T10:10:55.170Z,0.3
2022-08-29T10:12:02.830Z,0.4
2022-08-29T10:13:12.586Z,0.3
2022-08-29T10:14:20.153Z,0.4
2022-08-29T10:15:49.152Z,0.7
2022-08-29T10:16:40.568Z,0.4
2022-08-29T10:17:48.118Z,0.4
2022-08-29T10:18:56.790Z,0.7
2022-08-29T10:20:06.451Z,0.4
2022-08-29T10:21:15.122Z,0.4
2022-08-29T10:22:24.878Z,0.4
2022-08-29T10:23:33.553Z,0.4
2022-08-29T10:24:43.267Z,0.6
2022-08-29T10:25:52.926Z,0.4
2022-08-29T10:27:02.589Z,0.5
2022-08-29T10:28:12.263Z,0.5
2022-08-29T10:29:20.928Z,0.5
2022-08-29T10:30:29.632Z,0.3
2022-08-29T10:31:39.356Z,0.4
2022-08-29T10:32:47.037Z,0.4
2022-08-29T10:33:55.715Z,0.2
2022-08-29T10:35:05.376Z,0.4
2022-08-29T10:36:13.048Z,0.5
2022-08-29T10:37:22.731Z,0.4
2022-08-29T10:38:31.387Z,0.5
2022-08-29T10:39:39.039Z,0.4
2022-08-29T10:40:48.736Z,0.3
2022-08-29T10:41:57.383Z,0.4
2022-08-29T10:43:07.066Z,0.4
2022-08-29T10:45:25.453Z,0.6
2022-08-29T10:46:35.125Z,0.6
2022-08-29T10:47:44.814Z,0.6
2022-08-29T10:48:53.476Z,0.5
2022-08-29T10:50:03.182Z,0.5
2022-08-29T10:51:11.820Z,0.3
2022-08-29T10:52:20.488Z,0.3
2022-08-29T10:53:30.184Z,0.5
2022-08-29T10:54:38.849Z,0.3
2022-08-29T10:55:48.516Z,0.4
2022-08-29T10:56:57.193Z,0.3
2022-08-29T10:58:05.867Z,0.4
2022-08-29T10:59:16.544Z,0.3
2022-08-29T11:00:24.229Z,0.5
2022-08-29T11:01:32.962Z,0.7
2022-08-29T11:02:42.596Z,0.4
2022-08-29T11:03:51.327Z,0.4
2022-08-29T11:05:01.005Z,0.4
2022-08-29T11:06:09.676Z,0.5
2022-08-29T11:07:18.350Z,0.4
2022-08-29T11:08:28.023Z,0.4
2022-08-29T11:09:36.705Z,0.3
2022-08-29T11:10:46.424Z,0.4
2022-08-29T11:11:56.089Z,0.2
2022-08-29T11:13:04.752Z,0.2
2022-08-29T11:14:13.416Z,0.1
2022-08-29T11:15:23.110Z,0.3
2022-08-29T11:16:30.859Z,0.2
2022-08-29T11:17:40.438Z,0.1
2022-08-29T11:18:49.084Z,0.2
2022-08-29T11:19:57.780Z,0.1
2022-08-29T11:21:07.496Z,0.3
2022-08-29T11:22:17.190Z,0.2
2022-08-29T11:23:26.901Z,0.1
2022-08-29T11:24:37.974Z,0.1
2022-08-29T11:25:47.218Z,0.2
2022-08-29T11:26:56.894Z,0.2
2022-08-29T11:28:05.605Z,0.2
2022-08-29T11:29:15.270Z,0.4
2022-08-29T11:30:23.975Z,0.2
2022-08-29T11:31:32.665Z,0.1
2022-08-29T11:32:42.337Z,0.4
2022-08-29T11:33:52.023Z,0.3
2022-08-29T11:35:01.691Z,0.2
2022-08-29T11:36:11.343Z,0.2
2022-08-29T11:37:20.038Z,0.2
2022-08-29T11:38:29.729Z,0.2
2022-08-29T11:39:38.415Z,0.1
2022-08-29T11:40:48.693Z,0
2022-08-29T11:41:58.519Z,0.2
2022-08-29T11:43:11.925Z,0.1
2022-08-29T11:44:18.074Z,0.2
2022-08-29T11:45:28.360Z,0.4
2022-08-29T11:46:38.478Z,0.4
2022-08-29T11:47:48.122Z,0.2
2022-08-29T11:48:59.696Z,0.2
2022-08-29T11:50:05.517Z,0.2
2022-08-29T11:51:15.201Z,0.3
2022-08-29T11:52:24.892Z,0.4
2022-08-29T11:53:34.565Z,0.4
2022-08-29T11:54:43.275Z,0.2
2022-08-29T11:55:50.925Z,0.3
2022-08-29T11:57:00.604Z,0.1
2022-08-29T11:58:11.801Z,0.1
2022-08-29T11:59:20.927Z,0.3
2022-08-29T12:00:29.597Z,0.3
2022-08-29T12:01:39.527Z,0.1
2022-08-29T12:02:49.147Z,0.2
2022-08-29T12:03:57.750Z,0.1
2022-08-29T12:05:05.403Z,0.2
2022-08-29T12:06:15.141Z,0.3
2022-08-29T12:07:22.842Z,0.2
2022-08-29T12:08:38.582Z,0.3
2022-08-29T12:09:42.200Z,0.3
2022-08-29T12:10:49.925Z,0.2
2022-08-29T12:11:59.600Z,0.1
2022-08-29T12:13:08.333Z,0.3
2022-08-29T12:14:16.073Z,0.3
2022-08-29T12:15:25.755Z,0.2
2022-08-29T12:16:34.461Z,0.3
2022-08-29T12:18:02.227Z,0.1
2022-08-29T12:18:54.741Z,0.3
2022-08-29T12:20:02.560Z,0.4
2022-08-29T12:21:12.125Z,0.1
2022-08-29T12:22:22.489Z,0.3
2022-08-29T12:23:29.428Z,0.4
2022-08-29T12:24:39.082Z,0.2
2022-08-29T12:25:46.937Z,0.3
2022-08-29T12:26:56.426Z,0.4
2022-08-29T12:28:06.281Z,0.5
2022-08-29T12:29:14.780Z,0.2
2022-08-29T12:30:24.525Z,0.2
2022-08-29T12:31:33.211Z,0.1
2022-08-29T12:32:41.897Z,0.3
2022-08-29T12:33:52.471Z,0.2
2022-08-29T12:35:00.145Z,0.2
2022-08-29T12:36:09.823Z,0.2
2022-08-29T12:37:19.515Z,0.3
2022-08-29T12:38:27.169Z,0.3
2022-08-29T12:39:36.860Z,0.2
2022-08-29T12:40:46.603Z,0.2
2022-08-29T12:41:55.263Z,0.3
2022-08-29T12:43:05.014Z,0.2
2022-08-29T12:44:13.671Z,0.2
2022-08-29T12:45:22.361Z,0.2
2022-08-29T12:46:31.103Z,0.3
2022-08-29T12:47:40.136Z,0.1
2022-08-29T12:48:53.373Z,0.3
2022-08-29T12:49:58.073Z,0.1
2022-08-29T12:51:06.728Z,0.3
2022-08-29T12:52:16.389Z,0.3
2022-08-29T12:53:25.094Z,0.2
2022-08-29T12:54:33.790Z,0.2
2022-08-29T12:55:43.464Z,0.3
2022-08-29T12:56:51.167Z,0.4
2022-08-29T12:58:00.871Z,0.3
2022-08-29T12:59:09.553Z,0.2
2022-08-29T13:00:17.261Z,0.1
2022-08-29T13:01:27.054Z,0.2
2022-08-29T13:02:35.711Z,0.4
2022-08-29T13:03:44.322Z,0.2
2022-08-29T13:04:53.991Z,0.4
2022-08-29T13:06:01.785Z,0.2
2022-08-29T13:07:11.525Z,0.2
2022-08-29T13:08:20.340Z,0.3
2022-08-29T13:09:28.776Z,0.4
2022-08-29T13:10:38.437Z,0.2
2022-08-29T13:11:48.146Z,0.2
2022-08-29T13:12:56.789Z,0.3
2022-08-29T13:14:06.519Z,0.2
2022-08-29T13:15:16.171Z,0.2
2022-08-29T13:16:25.891Z,0.3
2022-08-29T13:17:35.655Z,0.1
2022-08-29T13:19:00.497Z,0.2
2022-08-29T13:19:55.944Z,0.1
2022-08-29T13:21:03.631Z,0.2
2022-08-29T13:22:13.269Z,0.2
2022-08-29T13:23:20.962Z,0.2
2022-08-29T13:24:30.621Z,0.5
2022-08-29T13:25:40.293Z,0.2
2022-08-29T13:26:50.564Z,0.2
2022-08-29T13:28:01.860Z,0.2
2022-08-29T13:29:09.343Z,0.4
2022-08-29T13:30:18.017Z,0.2
2022-08-29T13:31:27.726Z,0.4
2022-08-29T13:32:35.343Z,0.1
2022-08-29T13:33:44.035Z,0.3
2022-08-29T13:34:53.722Z,0.1
2022-08-29T13:36:01.361Z,0.3
2022-08-29T13:37:15.758Z,0.2
2022-08-29T13:38:20.657Z,0.2
2022-08-29T13:39:28.305Z,0.3
2022-08-29T13:40:38.123Z,0.4
2022-08-29T13:41:45.684Z,0.3
2022-08-29T13:42:54.335Z,0.4
2022-08-29T13:44:03.984Z,0.4
2022-08-29T13:45:11.660Z,0.3
2022-08-29T13:46:21.347Z,0.1
2022-08-29T13:47:30.994Z,0.3
2022-08-29T13:48:38.682Z,0.1
2022-08-29T13:49:48.348Z,0.2
2022-08-29T13:50:57.041Z,0.2
2022-08-29T13:52:05.733Z,0.3
2022-08-29T13:53:15.702Z,0.2
2022-08-29T13:54:24.071Z,0.4
2022-08-29T13:55:33.780Z,0.2
2022-08-29T13:56:43.445Z,0.3
2022-08-29T13:57:51.142Z,0.3
2022-08-29T13:59:00.829Z,0.2
2022-08-29T14:00:08.488Z,0.3
2022-08-29T14:02:27.973Z,0.3
2022-08-29T14:03:35.626Z,0.2
2022-08-29T14:04:45.233Z,0.2
2022-08-29T14:05:53.816Z,0.3
2022-08-29T14:07:02.473Z,0.2
2022-08-29T14:08:11.145Z,0.3
2022-08-29T14:09:18.871Z,0.1
2022-08-29T14:10:27.524Z,0.3
2022-08-29T14:11:37.174Z,0.3
2022-08-29T14:12:44.824Z,0.3
2022-08-29T14:13:54.494Z,0.2
2022-08-29T14:15:08.267Z,0.4
2022-08-29T14:16:11.891Z,0.3
2022-08-29T14:17:21.473Z,0.2
2022-08-29T14:18:32.682Z,0.1
2022-08-29T14:19:40.863Z,0.1
2022-08-29T14:20:50.598Z,0.1
2022-08-29T14:21:59.268Z,0.3
2022-08-29T14:23:08.967Z,0.3
2022-08-29T14:24:17.604Z,0.5
2022-08-29T14:25:27.283Z,0.6
2022-08-29T14:26:36.961Z,0.6
2022-08-29T14:27:46.652Z,0.4
2022-08-29T14:28:55.295Z,0.2
2022-08-29T14:30:04.988Z,0.2
2022-08-29T14:31:12.708Z,0.4
2022-08-29T14:32:22.344Z,0.3
2022-08-29T14:33:30.988Z,0.4
2022-08-29T14:34:39.664Z,0.3
2022-08-29T14:35:49.337Z,0.3
2022-08-29T14:36:56.991Z,0.4
2022-08-29T14:38:08.816Z,0.2
2022-08-29T14:39:17.334Z,0.1
2022-08-29T14:40:28.770Z,0.3
2022-08-29T14:41:37.674Z,0.2
2022-08-29T14:42:46.347Z,0.2
2022-08-29T14:43:55.049Z,0.4
2022-08-29T14:45:03.706Z,0.2
2022-08-29T14:46:12.440Z,0.1
2022-08-29T14:47:21.042Z,0.5
2022-08-29T14:48:30.709Z,0.3
2022-08-29T14:49:39.421Z,0.2
2022-08-29T14:50:49.213Z,0.1
2022-08-29T14:51:57.855Z,0.3
2022-08-29T14:53:06.523Z,0.2
2022-08-29T14:54:16.187Z,0.6
2022-08-29T14:55:24.941Z,0.2
2022-08-29T14:56:47.907Z,0.1
2022-08-29T14:57:45.299Z,0.2
2022-08-29T14:58:52.959Z,0.3
2022-08-29T15:00:02.640Z,0.3
2022-08-29T15:01:11.396Z,0.3
2022-08-29T15:02:19.140Z,0.3
2022-08-29T15:03:29.637Z,0.2
2022-08-29T15:04:39.574Z,0.2
2022-08-29T15:05:50.597Z,0.4
2022-08-29T15:06:58.946Z,0.3
2022-08-29T15:08:11.357Z,0.2
2022-08-29T15:09:20.241Z,0.3
2022-08-29T15:10:28.913Z,0.3
2022-08-29T15:11:39.583Z,0.2
2022-08-29T15:12:50.261Z,0.2
2022-08-29T15:14:00.969Z,0.3
2022-08-29T15:15:08.629Z,0.3
2022-08-29T15:16:18.317Z,0.5
2022-08-29T15:17:25.961Z,0.4
2022-08-29T15:19:24.767Z,0.3
2022-08-29T15:20:57.931Z,0.1
2022-08-29T15:22:07.607Z,0.1
2022-08-29T15:23:16.249Z,0.4
2022-08-29T15:24:26.046Z,0.3
2022-08-29T15:25:34.713Z,0.3
2022-08-29T15:26:43.381Z,0.3
2022-08-29T15:27:53.060Z,0.1
2022-08-29T15:29:01.703Z,0.3
2022-08-29T15:30:11.394Z,0.3
2022-08-29T15:31:20.148Z,0.2
2022-08-29T15:32:27.724Z,0.3
2022-08-29T15:33:37.389Z,0.4
2022-08-29T15:34:45.051Z,0.2
2022-08-29T15:35:53.750Z,0.2
2022-08-29T15:37:03.416Z,0.2
2022-08-29T15:38:12.138Z,0.3
2022-08-29T15:39:21.787Z,0.2
2022-08-29T15:40:30.517Z,0.2
2022-08-29T15:41:38.132Z,0.3
2022-08-29T15:42:47.811Z,0.2
2022-08-29T15:43:55.476Z,0.4
2022-08-29T15:45:05.851Z,0.3
2022-08-29T15:46:14.833Z,0.1
2022-08-29T15:47:25.675Z,0.1
2022-08-29T15:48:34.125Z,0.2
2022-08-29T15:49:42.802Z,0.3
2022-08-29T15:50:51.471Z,0.2
2022-08-29T15:52:01.144Z,0.2
2022-08-29T15:53:08.824Z,0.3
2022-08-29T15:54:17.506Z,0.3
2022-08-29T15:55:27.201Z,0.2
2022-08-29T15:56:36.900Z,0.2
2022-08-29T15:57:51.357Z,0.1
2022-08-29T15:58:55.228Z,0.1